Time,TemperatureF,DewpointF,PressureIn,WindDirection,WindDirectionDegrees,WindSpeedMPH,WindSpeedGustMPH,Humidity,HourlyPrecipIn,Conditions,Clouds,dailyrainin,SoftwareType,DateUTC
2013-10-12 00:00:00,55.1,51.6,30.06,ESE,118,0.0,0.0,88,0.00,,,0.00,Wunderground v.1.15,2013-10-12 04:00:00,
2013-10-12 00:05:00,55.1,51.9,30.07,ESE,118,0.0,0.0,89,0.00,,,0.00,Wunderground v.1.15,2013-10-12 04:05:00,
2013-10-12 00:10:00,55.0,51.8,30.07,ESE,118,0.0,0.0,89,0.00,,,0.00,Wunderground v.1.15,2013-10-12 04:10:00,
2013-10-12 00:15:00,55.1,52.2,30.06,ESE,118,0.0,0.0,90,0.00,,,0.00,Wunderground v.1.15,2013-10-12 04:15:00,
2013-10-12 00:20:00,55.1,51.9,30.06,ESE,118,0.0,0.0,89,0.00,,,0.00,Wunderground v.1.15,2013-10-12 04:20:00,
2013-10-12 00:30:00,54.7,51.5,30.07,ESE,118,0.0,0.0,89,0.00,,,0.00,Wunderground v.1.15,2013-10-12 04:30:00,
2013-10-12 00:40:00,54.3,51.4,30.07,ESE,118,0.0,0.0,90,0.00,,,0.00,Wunderground v.1.15,2013-10-12 04:40:00,
2013-10-12 00:45:00,54.5,51.9,30.06,ESE,118,0.0,0.0,91,0.00,,,0.00,Wunderground v.1.15,2013-10-12 04:45:00,
2013-10-12 00:50:00,54.2,51.3,30.06,ESE,118,0.0,0.0,90,0.00,,,0.00,Wunderground v.1.15,2013-10-12 04:50:00,
2013-10-12 00:55:00,53.7,50.8,30.06,ESE,118,0.0,0.0,90,0.00,,,0.00,Wunderground v.1.15,2013-10-12 04:55:00,
2013-10-12 01:05:00,53.2,50.6,30.06,ESE,118,0.0,0.0,91,0.00,,,0.00,Wunderground v.1.15,2013-10-12 05:05:00,
2013-10-12 01:10:00,53.2,50.6,30.06,ESE,118,0.0,0.0,91,0.00,,,0.00,Wunderground v.1.15,2013-10-12 05:10:00,
2013-10-12 01:15:00,53.5,50.9,30.06,ESE,118,0.0,0.0,91,0.00,,,0.00,Wunderground v.1.15,2013-10-12 05:15:00,
2013-10-12 01:20:00,53.5,51.2,30.06,ESE,118,0.0,0.0,92,0.00,,,0.00,Wunderground v.1.15,2013-10-12 05:20:00,
2013-10-12 01:30:00,52.8,50.5,30.06,ESE,118,0.0,0.0,92,0.00,,,0.00,Wunderground v.1.15,2013-10-12 05:30:00,
2013-10-12 01:40:00,53.6,51.6,30.06,ESE,118,0.0,0.0,93,0.00,,,0.00,Wunderground v.1.15,2013-10-12 05:40:00,
2013-10-12 01:50:00,54.1,51.8,30.06,ESE,118,0.0,0.0,92,0.00,,,0.00,Wunderground v.1.15,2013-10-12 05:50:00,
2013-10-12 02:00:00,53.9,51.6,30.06,ESE,118,0.0,0.0,92,0.00,,,0.00,Wunderground v.1.15,2013-10-12 06:00:00,
2013-10-12 02:05:00,53.9,51.6,30.06,ESE,118,0.0,0.0,92,0.00,,,0.00,Wunderground v.1.15,2013-10-12 06:05:00,
2013-10-12 02:15:00,54.4,52.1,30.06,ESE,118,0.0,0.0,92,0.00,,,0.00,Wunderground v.1.15,2013-10-12 06:15:00,
2013-10-12 02:25:00,53.5,51.2,30.06,ESE,118,0.0,0.0,92,0.00,,,0.00,Wunderground v.1.15,2013-10-12 06:25:00,
2013-10-12 02:35:00,53.1,51.1,30.06,ESE,118,0.0,0.0,93,0.00,,,0.00,Wunderground v.1.15,2013-10-12 06:35:00,
2013-10-12 02:45:00,52.8,50.8,30.06,ESE,118,0.0,0.0,93,0.00,,,0.00,Wunderground v.1.15,2013-10-12 06:45:00,
2013-10-12 02:55:00,52.3,50.3,30.06,ESE,118,0.0,0.0,93,0.00,,,0.00,Wunderground v.1.15,2013-10-12 06:55:00,
2013-10-12 03:05:00,52.3,50.6,30.06,ESE,118,0.0,0.0,94,0.00,,,0.00,Wunderground v.1.15,2013-10-12 07:05:00,
2013-10-12 03:10:00,52.6,50.9,30.06,ESE,118,0.0,0.0,94,0.00,,,0.00,Wunderground v.1.15,2013-10-12 07:10:00,
2013-10-12 03:20:00,52.1,50.1,30.06,ESE,118,0.0,0.0,93,0.00,,,0.00,Wunderground v.1.15,2013-10-12 07:20:00,
2013-10-12 03:25:00,52.3,50.6,30.06,ESE,118,0.0,0.0,94,0.00,,,0.00,Wunderground v.1.15,2013-10-12 07:25:00,
2013-10-12 03:35:00,52.4,50.4,30.06,ESE,118,0.0,0.0,93,0.00,,,0.00,Wunderground v.1.15,2013-10-12 07:35:00,
2013-10-12 03:45:00,52.9,51.2,30.06,ESE,118,0.0,0.0,94,0.00,,,0.00,Wunderground v.1.15,2013-10-12 07:45:00,
2013-10-12 03:55:00,53.1,51.4,30.07,ESE,118,0.0,0.0,94,0.00,,,0.00,Wunderground v.1.15,2013-10-12 07:55:00,
2013-10-12 04:05:00,53.1,51.4,30.07,ESE,118,0.0,0.0,94,0.00,,,0.00,Wunderground v.1.15,2013-10-12 08:05:00,
2013-10-12 04:10:00,53.3,51.6,30.07,ESE,118,0.0,0.0,94,0.00,,,0.00,Wunderground v.1.15,2013-10-12 08:10:00,
2013-10-12 04:20:00,53.3,51.3,30.07,ESE,118,0.0,0.0,93,0.00,,,0.00,Wunderground v.1.15,2013-10-12 08:20:00,
2013-10-12 04:30:00,52.9,50.9,30.07,ESE,118,0.0,0.0,93,0.00,,,0.00,Wunderground v.1.15,2013-10-12 08:30:00,
2013-10-12 04:35:00,52.8,50.8,30.07,ESE,118,0.0,0.0,93,0.00,,,0.00,Wunderground v.1.15,2013-10-12 08:35:00,
2013-10-12 04:45:00,52.7,50.7,30.07,ESE,118,0.0,0.0,93,0.00,,,0.00,Wunderground v.1.15,2013-10-12 08:45:00,
2013-10-12 04:50:00,52.4,50.4,30.07,ESE,118,0.0,0.0,93,0.00,,,0.00,Wunderground v.1.15,2013-10-12 08:50:00,
2013-10-12 04:55:00,52.4,50.7,30.07,ESE,118,0.0,0.0,94,0.00,,,0.00,Wunderground v.1.15,2013-10-12 08:55:00,
2013-10-12 05:05:00,52.1,50.4,30.07,ESE,118,0.0,0.0,94,0.00,,,0.00,Wunderground v.1.15,2013-10-12 09:05:00,
2013-10-12 05:10:00,51.5,49.8,30.07,ESE,118,0.0,0.0,94,0.00,,,0.00,Wunderground v.1.15,2013-10-12 09:10:00,
2013-10-12 05:15:00,51.5,49.8,30.07,ESE,118,0.0,0.0,94,0.00,,,0.00,Wunderground v.1.15,2013-10-12 09:15:00,
2013-10-12 05:25:00,52.3,50.9,30.07,ESE,118,0.0,0.0,95,0.00,,,0.00,Wunderground v.1.15,2013-10-12 09:25:00,
2013-10-12 05:35:00,51.7,50.3,30.07,ESE,118,0.0,0.0,95,0.00,,,0.00,Wunderground v.1.15,2013-10-12 09:35:00,
2013-10-12 05:45:00,51.9,50.5,30.07,ESE,118,0.0,0.0,95,0.00,,,0.00,Wunderground v.1.15,2013-10-12 09:45:00,
2013-10-12 05:55:00,52.6,51.2,30.07,ESE,118,0.0,0.0,95,0.00,,,0.00,Wunderground v.1.15,2013-10-12 09:55:00,
2013-10-12 06:05:00,53.0,51.6,30.07,ESE,118,0.0,0.0,95,0.00,,,0.00,Wunderground v.1.15,2013-10-12 10:05:00,
2013-10-12 06:15:00,53.5,52.1,30.07,ESE,118,0.0,0.0,95,0.00,,,0.00,Wunderground v.1.15,2013-10-12 10:15:00,
2013-10-12 06:25:00,54.4,53.0,30.07,ESE,118,0.0,1.0,95,0.00,,,0.00,Wunderground v.1.15,2013-10-12 10:25:00,
2013-10-12 06:35:00,53.7,52.0,30.07,ESE,118,0.0,0.0,94,0.00,,,0.00,Wunderground v.1.15,2013-10-12 10:35:00,
2013-10-12 06:45:00,55.0,53.6,30.07,ESE,118,0.0,0.0,95,0.00,,,0.00,Wunderground v.1.15,2013-10-12 10:45:00,
2013-10-12 06:55:00,55.7,54.3,30.07,ESE,118,0.0,1.0,95,0.00,,,0.00,Wunderground v.1.15,2013-10-12 10:55:00,
2013-10-12 07:00:00,56.0,54.6,30.08,ESE,118,0.0,0.0,95,0.00,,,0.00,Wunderground v.1.15,2013-10-12 11:00:00,
2013-10-12 07:10:00,56.3,54.9,30.08,ESE,118,1.0,1.0,95,0.00,,,0.00,Wunderground v.1.15,2013-10-12 11:10:00,
2013-10-12 07:15:00,56.4,55.0,30.08,ESE,118,1.0,1.0,95,0.00,,,0.00,Wunderground v.1.15,2013-10-12 11:15:00,
2013-10-12 07:25:00,56.6,55.2,30.08,ESE,118,0.0,0.0,95,0.00,,,0.00,Wunderground v.1.15,2013-10-12 11:25:00,
2013-10-12 07:30:00,56.7,55.3,30.08,ESE,118,0.0,0.0,95,0.00,,,0.00,Wunderground v.1.15,2013-10-12 11:30:00,
2013-10-12 07:40:00,56.9,55.5,30.08,ESE,118,1.0,1.0,95,0.00,,,0.00,Wunderground v.1.15,2013-10-12 11:40:00,
2013-10-12 07:50:00,57.0,55.6,30.08,ESE,118,1.0,1.0,95,0.00,,,0.00,Wunderground v.1.15,2013-10-12 11:50:00,
2013-10-12 08:00:00,57.3,55.6,30.08,ESE,118,0.0,0.0,94,0.00,,,0.00,Wunderground v.1.15,2013-10-12 12:00:00,
2013-10-12 08:10:00,57.4,55.7,30.08,ESE,118,0.0,0.0,94,0.00,,,0.00,Wunderground v.1.15,2013-10-12 12:10:00,
2013-10-12 08:20:00,57.3,55.6,30.07,ESE,118,0.0,0.0,94,0.00,,,0.00,Wunderground v.1.15,2013-10-12 12:20:00,
2013-10-12 08:25:00,57.4,55.7,30.08,ESE,118,0.0,1.0,94,0.00,,,0.00,Wunderground v.1.15,2013-10-12 12:25:00,
2013-10-12 08:35:00,57.5,55.8,30.08,ESE,118,1.0,1.0,94,0.00,,,0.00,Wunderground v.1.15,2013-10-12 12:35:00,
2013-10-12 08:45:00,57.8,56.1,30.08,ESE,118,0.0,0.0,94,0.00,,,0.00,Wunderground v.1.15,2013-10-12 12:45:00,
2013-10-12 08:55:00,58.0,56.3,30.08,ESE,118,0.0,0.0,94,0.00,,,0.00,Wunderground v.1.15,2013-10-12 12:55:00,
2013-10-12 09:05:00,58.7,57.0,30.08,ESE,118,0.0,0.0,94,0.00,,,0.00,Wunderground v.1.15,2013-10-12 13:05:00,
2013-10-12 09:10:00,59.1,57.4,30.08,ESE,118,1.0,1.0,94,0.00,,,0.00,Wunderground v.1.15,2013-10-12 13:10:00,
2013-10-12 09:20:00,59.6,58.2,30.08,ESE,118,1.0,1.0,95,0.00,,,0.00,Wunderground v.1.15,2013-10-12 13:20:00,
2013-10-12 09:25:00,59.8,58.4,30.08,ESE,118,2.0,2.0,95,0.00,,,0.00,Wunderground v.1.15,2013-10-12 13:25:00,
2013-10-12 09:35:00,59.9,58.5,30.08,ESE,118,2.0,2.0,95,0.00,,,0.00,Wunderground v.1.15,2013-10-12 13:35:00,
2013-10-12 09:40:00,60.0,58.6,30.08,ESE,118,2.0,2.0,95,0.00,,,0.00,Wunderground v.1.15,2013-10-12 13:40:00,
2013-10-12 09:50:00,60.4,59.0,30.08,ESE,118,1.0,1.0,95,0.00,,,0.00,Wunderground v.1.15,2013-10-12 13:50:00,
2013-10-12 09:55:00,60.4,58.7,30.08,ESE,118,1.0,2.0,94,0.00,,,0.00,Wunderground v.1.15,2013-10-12 13:55:00,
2013-10-12 10:05:00,60.6,59.2,30.08,ESE,118,2.0,4.0,95,0.00,,,0.00,Wunderground v.1.15,2013-10-12 14:05:00,
2013-10-12 10:15:00,60.9,59.5,30.08,ESE,118,2.0,2.0,95,0.00,,,0.00,Wunderground v.1.15,2013-10-12 14:15:00,
2013-10-12 10:25:00,60.8,59.4,30.08,ESE,118,2.0,2.0,95,0.00,,,0.00,Wunderground v.1.15,2013-10-12 14:25:00,
2013-10-12 10:35:00,60.7,59.3,30.08,ESE,118,3.0,4.0,95,0.00,,,0.00,Wunderground v.1.15,2013-10-12 14:35:00,
2013-10-12 10:45:00,60.7,59.3,30.08,ESE,118,3.0,3.0,95,0.00,,,0.00,Wunderground v.1.15,2013-10-12 14:45:00,
2013-10-12 10:50:00,60.7,59.3,30.08,ESE,118,3.0,5.0,95,0.00,,,0.00,Wunderground v.1.15,2013-10-12 14:50:00,
2013-10-12 11:00:00,60.7,59.3,30.08,ESE,118,4.0,4.0,95,0.00,,,0.00,Wunderground v.1.15,2013-10-12 15:00:00,
2013-10-12 11:05:00,61.1,59.7,30.08,ESE,118,3.0,4.0,95,0.00,,,0.00,Wunderground v.1.15,2013-10-12 15:05:00,
2013-10-12 11:15:00,61.4,59.7,30.08,ESE,118,3.0,3.0,94,0.00,,,0.00,Wunderground v.1.15,2013-10-12 15:15:00,
2013-10-12 11:20:00,62.0,60.3,30.08,ESE,118,2.0,2.0,94,0.00,,,0.00,Wunderground v.1.15,2013-10-12 15:20:00,
2013-10-12 11:30:00,63.4,60.7,30.08,ESE,118,2.0,2.0,91,0.00,,,0.00,Wunderground v.1.15,2013-10-12 15:30:00,
2013-10-12 11:40:00,64.5,60.9,30.08,SE,138,3.0,4.0,88,0.00,,,0.00,Wunderground v.1.15,2013-10-12 15:40:00,
2013-10-12 11:50:00,65.5,61.2,30.07,SE,128,3.0,3.0,86,0.00,,,0.00,Wunderground v.1.15,2013-10-12 15:50:00,
2013-10-12 12:00:00,67.0,61.3,30.07,SE,136,3.0,5.0,82,0.00,,,0.00,Wunderground v.1.15,2013-10-12 16:00:00,
2013-10-12 12:05:00,67.4,61.4,30.07,SE,137,4.0,5.0,81,0.00,,,0.00,Wunderground v.1.15,2013-10-12 16:05:00,
2013-10-12 12:10:00,67.4,61.0,30.07,SSE,153,3.0,6.0,80,0.00,,,0.00,Wunderground v.1.15,2013-10-12 16:10:00,
2013-10-12 12:20:00,69.0,61.1,30.07,SE,141,4.0,4.0,76,0.00,,,0.00,Wunderground v.1.15,2013-10-12 16:20:00,
2013-10-12 12:30:00,70.2,60.7,30.07,SSE,161,3.0,3.0,72,0.00,,,0.00,Wunderground v.1.15,2013-10-12 16:30:00,
2013-10-12 12:40:00,71.1,60.4,30.07,ESE,121,3.0,5.0,69,0.00,,,0.00,Wunderground v.1.15,2013-10-12 16:40:00,
2013-10-12 12:45:00,71.6,60.5,30.07,SE,140,3.0,5.0,68,0.00,,,0.00,Wunderground v.1.15,2013-10-12 16:45:00,
2013-10-12 12:55:00,70.8,58.4,30.07,SE,134,5.0,7.0,65,0.00,,,0.00,Wunderground v.1.15,2013-10-12 16:55:00,
2013-10-12 13:05:00,72.1,58.8,30.06,SE,140,4.0,5.0,63,0.00,,,0.00,Wunderground v.1.15,2013-10-12 17:05:00,
2013-10-12 13:15:00,72.2,58.0,30.06,South,169,4.0,4.0,61,0.00,,,0.00,Wunderground v.1.15,2013-10-12 17:15:00,
2013-10-12 13:25:00,72.9,57.7,30.05,East,91,4.0,4.0,59,0.00,,,0.00,Wunderground v.1.15,2013-10-12 17:25:00,
2013-10-12 13:35:00,73.5,54.8,30.05,SSW,192,4.0,4.0,52,0.00,,,0.00,Wunderground v.1.15,2013-10-12 17:35:00,
2013-10-12 13:45:00,72.8,55.2,30.05,SE,144,6.0,8.0,54,0.00,,,0.00,Wunderground v.1.15,2013-10-12 17:45:00,
2013-10-12 13:55:00,73.2,54.5,30.04,SSE,160,6.0,6.0,52,0.00,,,0.00,Wunderground v.1.15,2013-10-12 17:55:00,
2013-10-12 14:00:00,73.7,55.0,30.04,SE,128,5.0,5.0,52,0.00,,,0.00,Wunderground v.1.15,2013-10-12 18:00:00,
2013-10-12 14:10:00,73.9,55.7,30.04,ESE,113,5.0,5.0,53,0.00,,,0.00,Wunderground v.1.15,2013-10-12 18:10:00,
2013-10-12 14:20:00,74.6,56.9,30.03,ESE,114,4.0,7.0,54,0.00,,,0.00,Wunderground v.1.15,2013-10-12 18:20:00,
2013-10-12 14:30:00,74.4,57.7,30.03,SSW,199,5.0,9.0,56,0.00,,,0.00,Wunderground v.1.15,2013-10-12 18:30:00,
2013-10-12 14:40:00,74.4,57.7,30.03,SE,139,4.0,4.0,56,0.00,,,0.00,Wunderground v.1.15,2013-10-12 18:40:00,
2013-10-12 14:50:00,74.9,57.1,30.02,ESE,113,3.0,4.0,54,0.00,,,0.00,Wunderground v.1.15,2013-10-12 18:50:00,
2013-10-12 15:00:00,74.8,58.1,30.02,East,97,6.0,10.0,56,0.00,,,0.00,Wunderground v.1.15,2013-10-12 19:00:00,
2013-10-12 15:10:00,75.3,58.0,30.01,ESE,108,5.0,5.0,55,0.00,,,0.00,Wunderground v.1.15,2013-10-12 19:10:00,
2013-10-12 15:20:00,75.9,58.6,30.01,East,99,5.0,5.0,55,0.00,,,0.00,Wunderground v.1.15,2013-10-12 19:20:00,
2013-10-12 15:30:00,75.6,56.2,30.02,SE,138,6.0,9.0,51,0.00,,,0.00,Wunderground v.1.15,2013-10-12 19:30:00,
2013-10-12 15:40:00,75.7,54.6,30.01,East,96,6.0,8.0,48,0.00,,,0.00,Wunderground v.1.15,2013-10-12 19:40:00,
2013-10-12 15:50:00,75.7,54.0,30.01,ESE,112,5.0,5.0,47,0.00,,,0.00,Wunderground v.1.15,2013-10-12 19:50:00,
2013-10-12 16:00:00,76.4,51.0,30.01,East,91,6.0,8.0,41,0.00,,,0.00,Wunderground v.1.15,2013-10-12 20:00:00,
2013-10-12 16:10:00,76.4,52.9,30.02,East,97,6.0,7.0,44,0.00,,,0.00,Wunderground v.1.15,2013-10-12 20:10:00,
2013-10-12 16:15:00,76.0,53.1,30.02,ESE,121,6.0,7.0,45,0.00,,,0.00,Wunderground v.1.15,2013-10-12 20:15:00,
2013-10-12 16:25:00,76.3,50.9,30.02,ESE,121,4.0,6.0,41,0.00,,,0.00,Wunderground v.1.15,2013-10-12 20:25:00,
2013-10-12 16:35:00,76.1,50.7,30.01,WSW,242,5.0,8.0,41,0.00,,,0.00,Wunderground v.1.15,2013-10-12 20:35:00,
2013-10-12 16:45:00,76.2,52.7,30.02,SE,141,5.0,9.0,44,0.00,,,0.00,Wunderground v.1.15,2013-10-12 20:45:00,
2013-10-12 16:55:00,75.9,55.4,30.02,ESE,121,5.0,6.0,49,0.00,,,0.00,Wunderground v.1.15,2013-10-12 20:55:00,
2013-10-12 17:05:00,75.4,57.6,30.02,South,189,5.0,14.0,54,0.00,,,0.00,Wunderground v.1.15,2013-10-12 21:05:00,
2013-10-12 17:15:00,74.6,58.8,30.02,ESE,121,6.0,8.0,58,0.00,,,0.00,Wunderground v.1.15,2013-10-12 21:15:00,
2013-10-12 17:25:00,73.6,58.9,30.02,SE,127,6.0,6.0,60,0.00,,,0.00,Wunderground v.1.15,2013-10-12 21:25:00,
2013-10-12 17:35:00,73.3,58.6,30.02,SE,132,6.0,7.0,60,0.00,,,0.00,Wunderground v.1.15,2013-10-12 21:35:00,
2013-10-12 17:40:00,73.4,58.2,30.02,SE,141,6.0,6.0,59,0.00,,,0.00,Wunderground v.1.15,2013-10-12 21:40:00,
2013-10-12 17:50:00,72.9,59.1,30.01,SE,132,6.0,6.0,62,0.00,,,0.00,Wunderground v.1.15,2013-10-12 21:50:00,
2013-10-12 18:00:00,72.2,59.3,30.01,SE,139,5.0,5.0,64,0.00,,,0.00,Wunderground v.1.15,2013-10-12 22:00:00,
2013-10-12 18:10:00,72.2,59.8,30.01,ESE,123,4.0,4.0,65,0.00,,,0.00,Wunderground v.1.15,2013-10-12 22:10:00,
2013-10-12 18:20:00,71.8,59.0,30.02,South,173,4.0,4.0,64,0.00,,,0.00,Wunderground v.1.15,2013-10-12 22:20:00,
2013-10-12 18:30:00,71.3,58.9,30.02,ESE,103,3.0,8.0,65,0.00,,,0.00,Wunderground v.1.15,2013-10-12 22:30:00,
2013-10-12 18:40:00,71.0,59.1,30.02,SE,138,4.0,4.0,66,0.00,,,0.00,Wunderground v.1.15,2013-10-12 22:40:00,
2013-10-12 18:50:00,70.5,59.0,30.02,SE,138,4.0,4.0,67,0.00,,,0.00,Wunderground v.1.15,2013-10-12 22:50:00,
2013-10-12 18:55:00,70.2,58.7,30.02,SE,145,3.0,4.0,67,0.00,,,0.00,Wunderground v.1.15,2013-10-12 22:55:00,
2013-10-12 19:05:00,69.7,58.7,30.02,SE,130,3.0,4.0,68,0.00,,,0.00,Wunderground v.1.15,2013-10-12 23:05:00,
2013-10-12 19:15:00,69.1,58.9,30.02,SE,142,2.0,3.0,70,0.00,,,0.00,Wunderground v.1.15,2013-10-12 23:15:00,
2013-10-12 19:25:00,68.6,58.8,30.03,SSE,149,2.0,4.0,71,0.00,,,0.00,Wunderground v.1.15,2013-10-12 23:25:00,
2013-10-12 19:35:00,68.2,59.2,30.03,SSE,155,3.0,3.0,73,0.00,,,0.00,Wunderground v.1.15,2013-10-12 23:35:00,
2013-10-12 19:45:00,67.9,59.3,30.04,SSE,155,1.0,2.0,74,0.00,,,0.00,Wunderground v.1.15,2013-10-12 23:45:00,
2013-10-12 19:50:00,67.7,59.5,30.04,SSE,155,2.0,3.0,75,0.00,,,0.00,Wunderground v.1.15,2013-10-12 23:50:00,
2013-10-12 20:00:00,67.4,59.6,30.04,SSE,155,2.0,3.0,76,0.00,,,0.00,Wunderground v.1.15,2013-10-13 00:00:00,
2013-10-12 20:05:00,67.3,59.5,30.04,SSE,155,2.0,3.0,76,0.00,,,0.00,Wunderground v.1.15,2013-10-13 00:05:00,
2013-10-12 20:15:00,67.1,59.6,30.04,SSE,155,1.0,3.0,77,0.00,,,0.00,Wunderground v.1.15,2013-10-13 00:15:00,
2013-10-12 20:20:00,67.1,59.6,30.04,SSE,153,2.0,2.0,77,0.00,,,0.00,Wunderground v.1.15,2013-10-13 00:20:00,
2013-10-12 20:30:00,67.0,59.5,30.04,SSE,150,3.0,3.0,77,0.00,,,0.00,Wunderground v.1.15,2013-10-13 00:30:00,
2013-10-12 20:35:00,67.0,59.5,30.04,SSE,147,2.0,5.0,77,0.00,,,0.00,Wunderground v.1.15,2013-10-13 00:35:00,
2013-10-12 20:45:00,66.9,59.8,30.05,SE,143,3.0,4.0,78,0.00,,,0.00,Wunderground v.1.15,2013-10-13 00:45:00,
2013-10-12 20:55:00,66.8,59.7,30.05,SE,143,2.0,3.0,78,0.00,,,0.00,Wunderground v.1.15,2013-10-13 00:55:00,
2013-10-12 21:00:00,66.6,59.5,30.05,SE,143,1.0,3.0,78,0.00,,,0.00,Wunderground v.1.15,2013-10-13 01:00:00,
2013-10-12 21:05:00,66.5,59.4,30.05,SE,143,1.0,3.0,78,0.00,,,0.00,Wunderground v.1.15,2013-10-13 01:05:00,
2013-10-12 21:15:00,66.3,59.6,30.05,SE,143,1.0,2.0,79,0.00,,,0.00,Wunderground v.1.15,2013-10-13 01:15:00,
2013-10-12 21:25:00,66.1,59.7,30.05,SE,143,1.0,1.0,80,0.00,,,0.00,Wunderground v.1.15,2013-10-13 01:25:00,
2013-10-12 21:30:00,66.0,59.7,30.05,SE,143,2.0,2.0,80,0.00,,,0.00,Wunderground v.1.15,2013-10-13 01:30:00,
2013-10-12 21:40:00,65.8,59.8,30.06,SE,143,1.0,1.0,81,0.00,,,0.00,Wunderground v.1.15,2013-10-13 01:40:00,
2013-10-12 21:50:00,65.5,59.5,30.06,SE,143,1.0,1.0,81,0.00,,,0.00,Wunderground v.1.15,2013-10-13 01:50:00,
2013-10-12 22:00:00,65.3,59.7,30.06,SE,143,2.0,2.0,82,0.00,,,0.00,Wunderground v.1.15,2013-10-13 02:00:00,
2013-10-12 22:05:00,65.1,59.5,30.05,SE,143,2.0,2.0,82,0.00,,,0.00,Wunderground v.1.15,2013-10-13 02:05:00,
2013-10-12 22:10:00,64.9,59.6,30.06,SE,143,2.0,3.0,83,0.00,,,0.00,Wunderground v.1.15,2013-10-13 02:10:00,
2013-10-12 22:20:00,64.6,59.3,30.06,SE,143,1.0,1.0,83,0.00,,,0.00,Wunderground v.1.15,2013-10-13 02:20:00,
2013-10-12 22:25:00,64.5,59.6,30.06,SE,143,1.0,1.0,84,0.00,,,0.00,Wunderground v.1.15,2013-10-13 02:25:00,
2013-10-12 22:35:00,64.2,59.3,30.06,SE,143,1.0,1.0,84,0.00,,,0.00,Wunderground v.1.15,2013-10-13 02:35:00,
2013-10-12 22:45:00,63.9,59.3,30.06,SE,143,2.0,2.0,85,0.00,,,0.00,Wunderground v.1.15,2013-10-13 02:45:00,
2013-10-12 22:55:00,63.7,59.4,30.06,SE,143,2.0,2.0,86,0.00,,,0.00,Wunderground v.1.15,2013-10-13 02:55:00,
2013-10-12 23:05:00,63.3,59.0,30.06,SE,143,1.0,1.0,86,0.00,,,0.00,Wunderground v.1.15,2013-10-13 03:05:00,
2013-10-12 23:15:00,62.9,59.0,30.06,SE,143,1.0,1.0,87,0.00,,,0.00,Wunderground v.1.15,2013-10-13 03:15:00,
2013-10-12 23:25:00,62.7,59.1,30.06,SE,143,1.0,1.0,88,0.00,,,0.00,Wunderground v.1.15,2013-10-13 03:25:00,
2013-10-12 23:30:00,62.6,59.0,30.06,SE,143,1.0,4.0,88,0.00,,,0.00,Wunderground v.1.15,2013-10-13 03:30:00,
2013-10-12 23:40:00,62.5,59.2,30.06,SE,143,2.0,2.0,89,0.00,,,0.00,Wunderground v.1.15,2013-10-13 03:40:00,
2013-10-12 23:50:00,62.5,59.5,30.06,SE,143,1.0,1.0,90,0.00,,,0.00,Wunderground v.1.15,2013-10-13 03:50:00,
2013-10-12 23:55:00,62.5,59.5,30.06,SE,143,1.0,1.0,90,0.00,,,0.00,Wunderground v.1.15,2013-10-13 03:55:00,